Terminal Aerodrome Forecast
Issued by NWS Tampa Bay Area, FL

Home | Current Version | Previous Version | Text Only | Print | Product List | Glossary On
Versions: 1 2 3 4 5 6 7 8 9 10 11 12 13
430
FTUS42 KTBW 092328
TAFSRQ
TAF
KSRQ 092328Z 1000/1024 27017G24KT P6SM SCT035 BKN050
     FM100500 29013G18KT P6SM BKN035
     FM101200 35008KT P6SM SCT025 BKN035
     FM101700 32011G16KT P6SM SCT025 SCT035=

USA.gov is the U.S. government's official web portal to all federal, state and local government web resources and services.